Time;durP1;ratioP1;P1;durP2;ratioP2;P2;SDS_P1;SDS_P2;PMS_P1;PMS_P2;Temp;Humidity;BMP_temperature;BMP_pressure;BME280_temperature;BME280_humidity;BME280_pressure;Samples;Min_cycle;Max_cycle;Signal;HPM_P1;HPM_P2
2022/07/14 00:01:06;;;;;;;11.35;3.30;;;14.10;99.90;;;;;;5908641;23;20026;-66
2022/07/14 00:03:32;;;;;;;12.32;3.38;;;14.10;99.90;;;;;;4954756;28;20047;-66
2022/07/14 00:05:58;;;;;;;14.30;3.80;;;14.10;99.90;;;;;;4947099;28;20113;-66
2022/07/14 00:10:59;;;;;;;10.45;2.92;;;14.20;99.90;;;;;;6029756;23;20026;-68
2022/07/14 00:13:24;;;;;;;10.80;2.80;;;14.10;99.90;;;;;;4963645;28;20050;-67
2022/07/14 00:15:50;;;;;;;8.82;2.97;;;14.10;99.90;;;;;;4954158;28;20415;-67
2022/07/14 00:26:04;;;;;;;9.30;3.00;;;13.70;99.90;;;;;;4976367;23;20105;-67
2022/07/14 00:28:29;;;;;;;8.10;3.30;;;13.60;99.90;;;;;;5175307;23;20109;-68
2022/07/14 00:30:55;;;;;;;12.82;3.50;;;13.50;99.90;;;;;;4951844;29;20047;-68
2022/07/14 00:33:21;;;;;;;11.27;3.10;;;13.50;99.90;;;;;;4965954;23;20047;-69
2022/07/14 01:01:43;;;;;;;7.90;2.70;;;13.20;99.90;;;;;;5393189;23;20055;-67
2022/07/14 01:04:08;;;;;;;8.63;2.92;;;13.20;99.90;;;;;;4949967;28;20779;-67
2022/07/14 01:37:39;;;;;;;7.85;4.18;;;12.40;99.90;;;;;;5433724;23;20534;-67
2022/07/14 01:47:50;;;;;;;11.23;3.78;;;12.40;99.90;;;;;;5593358;23;20059;-67
2022/07/14 01:55:27;;;;;;;8.25;3.63;;;12.10;99.90;;;;;;5234298;23;20422;-67
2022/07/14 01:57:53;;;;;;;10.55;4.15;;;12.10;99.90;;;;;;4989024;28;20054;-67
2022/07/14 02:02:54;;;;;;;8.60;2.97;;;12.00;99.90;;;;;;5673423;23;20102;-67
2022/07/14 02:05:20;;;;;;;20.08;4.03;;;11.90;99.90;;;;;;4919597;29;20043;-68
2022/07/14 02:13:05;;;;;;;23.77;3.95;;;11.90;99.90;;;;;;4975369;28;20656;-67
2022/07/14 02:15:30;;;;;;;12.10;3.83;;;11.90;99.90;;;;;;4979701;28;20049;-67
2022/07/14 02:17:56;;;;;;;7.97;3.67;;;11.90;99.90;;;;;;5495614;23;20042;-67
2022/07/14 02:20:22;;;;;;;39.40;3.75;;;11.90;99.90;;;;;;4940598;29;20500;-67
2022/07/14 02:46:06;;;;;;;7.32;2.50;;;11.50;99.90;;;;;;5768867;23;19922;-66
2022/07/14 02:48:32;;;;;;;5.78;2.72;;;11.50;99.90;;;;;;4957319;28;20041;-67
2022/07/14 02:51:06;;;;;;;12.80;2.72;;;11.50;99.90;;;;;;4944197;29;20054;-67
2022/07/14 03:03:56;;;;;;;34.78;2.40;;;11.30;99.90;;;;;;5889203;23;20058;-65
2022/07/14 03:06:21;;;;;;;18.75;1.95;;;11.20;99.90;;;;;;4925087;29;20111;-67
2022/07/14 03:08:47;;;;;;;10.40;2.03;;;11.10;99.90;;;;;;4926078;29;20044;-67
2022/07/14 03:18:59;;;;;;;2.10;1.60;;;11.00;99.90;;;;;;5663724;23;20057;-66
2022/07/14 03:29:11;;;;;;;5.57;2.80;;;11.00;99.90;;;;;;5403033;23;20050;-68
2022/07/14 03:31:37;;;;;;;5.35;2.47;;;11.00;99.90;;;;;;4971582;28;20046;-67
2022/07/14 03:34:02;;;;;;;7.70;2.30;;;11.00;99.90;;;;;;4967607;28;20125;-68
2022/07/14 03:57:15;;;;;;;63.85;3.00;;;10.80;99.90;;;;;;5426486;23;20058;-67
2022/07/14 04:02:16;;;;;;;27.92;2.70;;;10.80;99.90;;;;;;5920832;23;20055;-67
2022/07/14 04:04:41;;;;;;;18.08;2.22;;;10.80;99.90;;;;;;4957771;28;20061;-67
2022/07/14 04:07:07;;;;;;;39.97;2.55;;;10.80;99.90;;;;;;4972090;28;20066;-66
2022/07/14 04:09:33;;;;;;;12.35;2.00;;;10.80;99.90;;;;;;4939089;28;20076;-66
2022/07/14 04:22:48;;;;;;;8.68;4.30;;;11.10;99.90;;;;;;5022365;23;20464;-67
2022/07/14 04:25:14;;;;;;;8.95;4.07;;;11.20;99.90;;;;;;4916682;29;20047;-67
2022/07/14 04:32:55;;;;;;;11.63;3.63;;;11.50;99.90;;;;;;6023737;23;20030;-67
2022/07/14 05:11:36;;;;;;;13.75;5.28;;;12.30;99.90;;;;;;5312746;23;20130;-67
2022/07/14 05:16:40;;;;;;;11.48;5.07;;;12.60;99.90;;;;;;5518195;23;20144;-67
2022/07/14 05:19:06;;;;;;;13.38;5.57;;;12.80;99.90;;;;;;4943970;29;20657;-67
2022/07/14 05:21:33;;;;;;;10.30;5.00;;;12.90;99.90;;;;;;4924486;29;20143;-67
2022/07/14 05:34:21;;;;;;;11.77;5.00;;;13.80;99.90;;;;;;5594685;23;20054;-66
2022/07/14 05:47:08;;;;;;;11.65;4.53;;;14.00;99.90;;;;;;5364943;23;20130;-67
2022/07/14 05:49:34;;;;;;;11.85;4.53;;;13.90;99.90;;;;;;4937011;29;21037;-66
2022/07/14 05:57:13;;;;;;;12.38;5.35;;;14.00;99.90;;;;;;5675179;23;20526;-66
2022/07/14 06:25:43;;;;;;;16.13;4.60;;;14.90;99.90;;;;;;5660801;23;20464;-67
2022/07/14 06:28:08;;;;;;;14.77;3.80;;;15.00;99.90;;;;;;4952770;28;20591;-67
2022/07/14 06:30:35;;;;;;;9.13;3.58;;;15.10;99.90;;;;;;4954008;28;20058;-67
2022/07/14 06:33:01;;;;;;;13.70;2.97;;;15.30;99.90;;;;;;4952710;28;20039;-66
2022/07/14 06:43:13;;;;;;;10.32;2.70;;;16.00;99.90;;;;;;5304973;23;20047;-67
2022/07/14 06:46:12;;;;;;;6.47;3.08;;;16.20;99.90;;;;;;4945010;29;20103;-66
2022/07/14 07:13:58;;;;;;;9.52;1.98;;;17.20;99.90;;;;;;5786292;23;20056;-68
2022/07/14 07:16:25;;;;;;;6.03;1.60;;;17.20;99.90;;;;;;4977562;28;20042;-68
2022/07/14 07:18:50;;;;;;;6.85;1.98;;;17.30;99.90;;;;;;4974436;28;20053;-68
2022/07/14 08:07:53;;;;;;;4.68;1.92;;;18.50;99.90;;;;;;5924534;23;20047;-67
2022/07/14 08:10:20;;;;;;;4.78;1.70;;;18.30;99.90;;;;;;5391154;23;20078;-67
2022/07/14 08:12:47;;;;;;;5.45;1.70;;;18.10;99.90;;;;;;4922806;28;20035;-68
2022/07/14 08:15:13;;;;;;;6.00;2.15;;;17.80;99.90;;;;;;4935811;29;20046;-68
2022/07/14 08:17:40;;;;;;;7.47;1.73;;;17.60;99.90;;;;;;4945005;28;20124;-68
2022/07/14 08:20:09;;;;;;;4.10;1.70;;;17.50;99.90;;;;;;4943342;29;20118;-68
2022/07/14 08:29:00;;;;;;;3.17;1.25;;;18.20;99.90;;;;;;5203627;23;20055;-68
2022/07/14 08:31:25;;;;;;;6.10;1.38;;;18.20;99.90;;;;;;4923343;29;20072;-67
2022/07/14 08:33:51;;;;;;;3.67;1.40;;;18.10;99.90;;;;;;4908501;29;20036;-67
2022/07/14 08:46:54;;;;;;;4.40;1.30;;;18.40;99.90;;;;;;5066899;23;20051;-67
2022/07/14 08:49:20;;;;;;;3.38;1.25;;;18.20;99.90;;;;;;4956298;28;20156;-68
2022/07/14 09:02:08;;;;;;;3.95;1.25;;;19.00;99.90;;;;;;6081386;23;20083;-67
2022/07/14 09:10:19;;;;;;;3.55;1.00;;;19.00;99.90;;;;;;5543638;23;20057;-67
2022/07/14 09:12:45;;;;;;;2.83;0.90;;;19.20;99.90;;;;;;5478603;23;20054;-68
2022/07/14 09:33:18;;;;;;;4.45;1.48;;;20.50;99.90;;;;;;5097759;23;20542;-67
2022/07/14 09:35:45;;;;;;;3.88;1.08;;;20.80;99.90;;;;;;4937985;29;20039;-67
2022/07/14 10:14:36;;;;;;;2.85;1.30;;;21.50;99.90;;;;;;5714594;23;20050;-67
2022/07/14 10:17:02;;;;;;;3.72;1.20;;;21.60;99.70;;;;;;5506178;23;20026;-68
2022/07/14 10:19:28;;;;;;;2.80;1.10;;;21.50;99.30;;;;;;4944896;29;20125;-68
2022/07/14 10:21:59;;;;;;;4.75;1.25;;;21.50;99.90;;;;;;4961471;28;20086;-68
2022/07/14 10:24:25;;;;;;;6.53;1.48;;;21.60;99.20;;;;;;4942200;29;20067;-68
2022/07/14 10:26:53;;;;;;;2.92;0.95;;;21.50;99.40;;;;;;5616492;23;20066;-64
2022/07/14 10:29:19;;;;;;;2.15;1.20;;;21.60;98.80;;;;;;4937156;29;20124;-64
2022/07/14 10:32:15;;;;;;;3.65;1.17;;;21.50;99.50;;;;;;4935286;29;20071;-64
2022/07/14 10:35:05;;;;;;;4.70;0.98;;;21.40;97.50;;;;;;4933563;29;20326;-64
2022/07/14 10:37:50;;;;;;;3.70;1.30;;;21.20;97.00;;;;;;4937313;28;20512;-64
2022/07/14 10:40:29;;;;;;;5.88;1.38;;;21.00;96.30;;;;;;4934189;29;20058;-64
2022/07/14 10:48:06;;;;;;;2.78;1.13;;;21.20;98.90;;;;;;5317208;23;1092454;-68
2022/07/14 10:50:31;;;;;;;3.70;1.20;;;21.40;98.70;;;;;;4989820;28;20061;-68
2022/07/14 10:58:28;;;;;;;1.77;1.20;;;21.30;98.60;;;;;;5225785;23;20066;-69
2022/07/14 11:06:03;;;;;;;2.00;0.98;;;21.10;98.20;;;;;;4923158;29;20036;-65
2022/07/14 11:08:33;;;;;;;2.13;0.90;;;21.20;97.90;;;;;;4917723;29;20569;-65
2022/07/14 11:11:00;;;;;;;3.50;1.67;;;21.40;97.70;;;;;;4917645;29;20040;-65
2022/07/14 11:13:29;;;;;;;5.03;1.58;;;21.50;97.50;;;;;;4926955;29;20424;-65
2022/07/14 11:16:00;;;;;;;2.05;1.00;;;21.50;97.80;;;;;;4897307;29;20040;-66
2022/07/14 11:26:50;;;;;;;3.63;1.10;;;21.60;97.50;;;;;;5965977;23;20007;-66
2022/07/14 11:44:59;;;;;;;3.38;1.08;;;22.10;96.20;;;;;;5702402;23;20049;-68
2022/07/14 11:52:57;;;;;;;4.25;1.15;;;21.80;96.30;;;;;;5850451;23;20059;-69
2022/07/14 11:55:22;;;;;;;5.35;1.48;;;21.70;96.80;;;;;;4956932;28;20114;-68
2022/07/14 12:00:23;;;;;;;2.25;1.30;;;21.50;97.80;;;;;;4972283;23;20058;-64
2022/07/14 12:02:51;;;;;;;4.63;1.20;;;21.50;97.60;;;;;;4950761;29;20031;-65
2022/07/14 12:05:17;;;;;;;1.80;0.90;;;21.50;97.30;;;;;;4952651;29;20039;-64
2022/07/14 12:07:48;;;;;;;3.00;1.02;;;21.60;97.30;;;;;;4952853;29;20047;-65
2022/07/14 12:10:14;;;;;;;;;;;21.70;97.10;;;;;;4942744;28;20507;-65
2022/07/14 12:12:42;;;;;;;3.42;1.02;;;21.50;94.30;;;;;;4973675;23;19922;-71
2022/07/14 12:15:08;;;;;;;4.22;1.40;;;21.40;95.70;;;;;;4935483;29;20117;-71
2022/07/14 12:17:47;;;;;;;4.65;1.10;;;21.40;96.50;;;;;;4937187;28;20174;-70
2022/07/14 12:20:13;;;;;;;4.20;1.42;;;21.60;96.30;;;;;;4919030;29;20125;-69
2022/07/14 12:22:52;;;;;;;2.00;1.08;;;21.80;96.90;;;;;;4925690;29;20051;-70
2022/07/14 12:25:25;;;;;;;2.05;1.10;;;22.10;96.80;;;;;;4946016;29;20039;-70
2022/07/14 12:27:51;;;;;;;2.35;1.20;;;22.50;96.30;;;;;;4916494;29;20092;-70
2022/07/14 12:30:17;;;;;;;1.70;1.00;;;22.80;96.00;;;;;;4916190;29;20483;-71
2022/07/14 12:32:43;;;;;;;2.90;1.13;;;23.00;95.70;;;;;;4935654;28;20035;-71
2022/07/14 12:35:09;;;;;;;2.75;1.40;;;23.30;95.50;;;;;;4932768;29;20067;-71
2022/07/14 12:37:36;;;;;;;3.88;1.30;;;23.70;95.60;;;;;;4916094;29;20086;-71
2022/07/14 12:40:02;;;;;;;2.95;1.38;;;23.70;94.90;;;;;;4933136;29;20062;-71
2022/07/14 12:42:28;;;;;;;2.28;1.30;;;23.60;94.70;;;;;;4919342;29;20043;-72
2022/07/14 12:45:02;;;;;;;4.28;1.40;;;23.60;94.60;;;;;;4915733;29;20059;-72
2022/07/14 12:47:28;;;;;;;3.50;1.10;;;23.80;93.70;;;;;;4914499;29;20059;-71
2022/07/14 12:49:54;;;;;;;3.83;1.20;;;23.40;94.10;;;;;;4927946;29;20047;-72
2022/07/14 12:52:20;;;;;;;2.33;1.30;;;23.00;94.30;;;;;;4916611;29;20515;-71
2022/07/14 12:54:46;;;;;;;3.80;1.17;;;22.70;94.70;;;;;;4926895;29;20055;-72
2022/07/14 12:57:24;;;;;;;4.53;1.40;;;22.40;94.80;;;;;;4934082;29;20078;-71
2022/07/14 12:59:49;;;;;;;3.60;1.23;;;22.30;94.50;;;;;;4919563;29;20500;-72
2022/07/14 13:02:24;;;;;;;3.63;1.20;;;22.00;95.70;;;;;;4921403;29;20091;-71
2022/07/14 13:04:58;;;;;;;3.17;1.33;;;21.80;95.60;;;;;;4922910;29;20052;-71
2022/07/14 13:07:29;;;;;;;5.60;1.23;;;21.50;95.80;;;;;;4923055;29;20050;-71
2022/07/14 13:10:17;;;;;;;2.03;1.30;;;21.30;96.10;;;;;;4919611;29;20516;-71
2022/07/14 13:12:51;;;;;;;2.58;1.48;;;21.10;96.20;;;;;;4945884;29;20070;-71
2022/07/14 13:15:21;;;;;;;3.25;1.58;;;21.00;96.10;;;;;;4958896;28;20053;-71
2022/07/14 13:18:02;;;;;;;3.17;1.60;;;20.90;96.70;;;;;;4945720;28;20044;-71
2022/07/14 13:20:49;;;;;;;2.53;1.27;;;21.00;96.60;;;;;;4938362;29;20046;-71
2022/07/14 13:23:35;;;;;;;5.75;1.83;;;21.60;96.00;;;;;;4941044;28;20055;-72
2022/07/14 13:26:07;;;;;;;2.10;1.20;;;21.90;94.90;;;;;;4945015;29;20043;-70
2022/07/14 13:28:52;;;;;;;2.20;1.25;;;21.90;96.40;;;;;;4955245;28;20043;-70
2022/07/14 13:31:22;;;;;;;5.63;1.65;;;21.80;95.00;;;;;;4954847;29;20660;-70
2022/07/14 13:33:50;;;;;;;4.57;1.53;;;21.70;95.80;;;;;;4936780;28;20043;-71
2022/07/14 13:36:18;;;;;;;5.47;1.65;;;21.60;96.00;;;;;;4955069;28;20035;-70
2022/07/14 13:38:44;;;;;;;5.07;1.45;;;21.50;95.80;;;;;;4957360;28;20107;-70
2022/07/14 13:41:12;;;;;;;3.75;1.60;;;21.30;95.50;;;;;;4950788;29;20065;-71
2022/07/14 13:43:40;;;;;;;2.25;1.50;;;21.20;95.70;;;;;;4954829;28;20054;-71
2022/07/14 13:46:06;;;;;;;4.40;1.52;;;21.10;96.20;;;;;;4953689;28;20039;-71
2022/07/14 13:48:32;;;;;;;3.45;1.35;;;21.00;96.60;;;;;;4961120;28;20039;-69
2022/07/14 13:53:42;;;;;;;3.47;1.42;;;21.20;96.60;;;;;;4974258;28;20039;-69
2022/07/14 13:56:08;;;;;;;4.15;1.45;;;21.40;96.60;;;;;;4954212;28;20027;-69
2022/07/14 13:58:34;;;;;;;4.70;1.40;;;21.40;96.10;;;;;;4963084;28;20043;-70
2022/07/14 14:01:00;;;;;;;4.25;1.85;;;21.40;96.20;;;;;;4964346;28;20392;-69
2022/07/14 14:03:26;;;;;;;2.95;1.40;;;21.50;96.40;;;;;;4964504;28;20043;-70
2022/07/14 14:05:57;;;;;;;5.35;1.50;;;21.50;96.60;;;;;;4954342;28;20360;-69
2022/07/14 14:08:25;;;;;;;2.13;1.30;;;21.50;95.30;;;;;;4955315;28;20043;-69
2022/07/14 14:10:51;;;;;;;4.32;1.40;;;21.50;96.30;;;;;;4951053;28;20118;-70
2022/07/14 14:13:21;;;;;;;4.13;1.50;;;21.50;96.60;;;;;;4962843;28;20038;-70
2022/07/14 14:15:47;;;;;;;3.05;1.30;;;21.50;96.40;;;;;;4947865;28;20089;-71
2022/07/14 14:18:13;;;;;;;4.18;1.40;;;21.60;95.60;;;;;;4974086;28;20042;-70
2022/07/14 14:20:39;;;;;;;2.83;1.30;;;21.80;95.80;;;;;;4943424;28;20067;-70
2022/07/14 14:23:06;;;;;;;3.22;1.48;;;21.70;95.20;;;;;;4954195;28;20035;-70
2022/07/14 14:25:33;;;;;;;2.10;1.20;;;21.70;95.60;;;;;;4970755;28;20114;-70
2022/07/14 14:28:00;;;;;;;2.35;1.25;;;21.70;95.50;;;;;;4967138;28;20035;-67
2022/07/14 14:30:26;;;;;;;4.20;1.63;;;21.60;95.40;;;;;;4952876;28;20054;-68
2022/07/14 14:32:51;;;;;;;3.85;1.40;;;21.60;95.40;;;;;;4933100;28;20043;-68
2022/07/14 14:35:17;;;;;;;4.30;1.40;;;21.60;95.50;;;;;;4949753;28;20046;-69
2022/07/14 14:37:43;;;;;;;4.10;1.40;;;21.50;96.00;;;;;;4958193;28;20460;-68
2022/07/14 14:40:09;;;;;;;4.35;1.35;;;21.40;96.00;;;;;;4933406;29;20043;-69
2022/07/14 14:42:35;;;;;;;2.55;1.17;;;21.40;96.20;;;;;;4933712;29;20423;-68
2022/07/14 14:45:00;;;;;;;3.55;1.42;;;21.20;96.00;;;;;;4936287;28;20050;-69
2022/07/14 14:47:26;;;;;;;1.60;1.20;;;21.20;96.10;;;;;;4952499;28;20118;-69
2022/07/14 14:49:55;;;;;;;2.75;1.13;;;21.10;96.20;;;;;;4952387;28;20093;-68
2022/07/14 14:52:21;;;;;;;5.38;1.60;;;21.00;96.20;;;;;;4952747;28;20106;-69
2022/07/14 14:54:47;;;;;;;2.47;1.13;;;20.90;96.20;;;;;;4965949;28;20038;-69
2022/07/14 14:57:13;;;;;;;3.83;1.13;;;20.80;96.00;;;;;;4940528;29;20050;-69
2022/07/14 14:59:39;;;;;;;4.72;1.35;;;20.80;96.20;;;;;;4967622;28;20403;-68
2022/07/14 15:02:05;;;;;;;3.35;1.25;;;20.70;96.20;;;;;;4956325;28;20097;-68
2022/07/14 15:04:30;;;;;;;2.92;1.20;;;20.60;96.30;;;;;;4958440;28;20095;-68
2022/07/14 15:06:56;;;;;;;3.58;1.55;;;20.50;96.60;;;;;;4933352;29;20047;-69
2022/07/14 15:09:22;;;;;;;2.65;1.13;;;20.50;96.50;;;;;;4949357;28;20046;-69
2022/07/14 15:11:48;;;;;;;3.03;1.10;;;20.50;96.70;;;;;;4954382;28;20060;-69
2022/07/14 15:14:14;;;;;;;3.13;1.20;;;20.50;96.50;;;;;;4939145;28;20039;-68
2022/07/14 15:16:39;;;;;;;4.05;1.30;;;20.60;96.90;;;;;;4970216;28;20407;-68
2022/07/14 15:19:05;;;;;;;2.38;1.20;;;20.70;96.80;;;;;;4966081;28;20043;-69
2022/07/14 15:21:31;;;;;;;2.97;1.48;;;21.00;96.60;;;;;;4959903;28;20058;-69
2022/07/14 15:23:57;;;;;;;3.63;1.40;;;21.80;97.00;;;;;;4933128;29;20047;-69
2022/07/14 15:26:22;;;;;;;3.38;1.30;;;22.80;95.50;;;;;;4950255;29;20423;-69
2022/07/14 15:28:48;;;;;;;4.38;1.02;;;23.60;93.50;;;;;;4938951;28;20047;-69
2022/07/14 15:31:17;;;;;;;2.22;1.10;;;24.30;92.00;;;;;;4961798;28;20043;-70
2022/07/14 15:33:44;;;;;;;3.72;1.10;;;25.00;91.00;;;;;;4932823;29;20051;-69
2022/07/14 15:36:10;;;;;;;1.63;1.17;;;25.30;88.00;;;;;;4935340;29;20102;-70
2022/07/14 15:41:20;;;;;;;3.90;1.25;;;25.00;87.80;;;;;;4932610;29;20047;-69
2022/07/14 15:43:45;;;;;;;3.75;1.25;;;25.10;84.60;;;;;;4936935;28;20043;-69
2022/07/14 15:46:12;;;;;;;6.88;1.50;;;25.30;82.70;;;;;;4954146;28;20480;-70
2022/07/14 15:48:41;;;;;;;3.13;1.20;;;25.30;79.50;;;;;;4949472;28;20411;-69
2022/07/14 15:51:07;;;;;;;1.70;1.08;;;25.40;78.10;;;;;;4947641;28;20340;-69
2022/07/14 15:53:34;;;;;;;1.75;1.17;;;25.50;76.20;;;;;;4959695;28;20039;-69
2022/07/14 15:56:00;;;;;;;4.40;1.15;;;25.70;75.40;;;;;;4949035;28;20075;-69
2022/07/14 15:58:26;;;;;;;5.97;1.50;;;25.80;73.30;;;;;;4931899;28;20059;-68
2022/07/14 16:00:51;;;;;;;3.33;1.20;;;25.10;74.30;;;;;;4951171;28;20423;-68
2022/07/14 16:03:17;;;;;;;4.70;1.20;;;24.10;74.30;;;;;;4968551;28;20403;-70
2022/07/14 16:05:44;;;;;;;2.83;1.08;;;23.30;76.70;;;;;;4965123;28;20041;-70
2022/07/14 16:08:10;;;;;;;4.72;1.10;;;23.10;80.40;;;;;;4942868;28;20049;-70
2022/07/14 16:10:39;;;;;;;4.45;1.45;;;23.60;79.10;;;;;;4956586;28;20841;-70
2022/07/14 16:13:06;;;;;;;2.33;1.02;;;24.30;77.20;;;;;;4949035;28;20043;-70
2022/07/14 16:15:32;;;;;;;1.65;1.10;;;24.70;74.50;;;;;;4932995;28;20078;-70
2022/07/14 16:17:58;;;;;;;3.97;1.20;;;25.00;70.40;;;;;;4938258;28;20039;-70
2022/07/14 16:20:24;;;;;;;3.40;1.38;;;25.30;70.80;;;;;;4960783;28;20047;-71
2022/07/14 16:22:50;;;;;;;2.50;1.23;;;25.70;68.80;;;;;;4949091;29;20039;-70
2022/07/14 16:25:18;;;;;;;3.58;1.23;;;25.90;64.60;;;;;;4932458;28;20039;-70
2022/07/14 16:27:45;;;;;;;6.35;1.50;;;25.30;61.20;;;;;;4933128;28;20054;-70
2022/07/14 16:30:11;;;;;;;3.13;1.10;;;25.10;64.60;;;;;;4949321;28;20046;-70
2022/07/14 16:32:37;;;;;;;5.00;1.00;;;25.40;63.50;;;;;;4930856;29;20130;-71
2022/07/14 16:35:04;;;;;;;2.80;1.10;;;25.40;62.50;;;;;;4935998;29;20142;-70
2022/07/14 16:37:29;;;;;;;3.70;1.20;;;25.30;62.40;;;;;;4935157;28;20118;-69
2022/07/14 16:39:55;;;;;;;4.28;1.20;;;25.30;61.90;;;;;;4955692;28;20507;-70
2022/07/14 16:42:21;;;;;;;3.13;1.27;;;24.70;62.70;;;;;;4936076;29;20043;-70
2022/07/14 16:44:47;;;;;;;3.65;1.55;;;24.00;65.20;;;;;;4947994;28;20121;-70
2022/07/14 16:47:12;;;;;;;4.82;1.60;;;23.30;71.40;;;;;;4931745;29;20035;-70
2022/07/14 16:49:40;;;;;;;5.68;1.60;;;22.50;77.40;;;;;;4946950;28;20039;-70
2022/07/14 16:52:06;;;;;;;3.33;1.70;;;22.20;86.00;;;;;;4940919;28;20578;-70
2022/07/14 16:54:31;;;;;;;3.00;1.38;;;21.90;88.70;;;;;;4939019;28;20056;-70
2022/07/14 16:56:57;;;;;;;3.65;1.55;;;21.50;91.10;;;;;;4962415;28;20046;-70
2022/07/14 16:59:23;;;;;;;5.85;2.13;;;21.10;92.60;;;;;;4936321;29;20035;-71
2022/07/14 17:01:48;;;;;;;4.70;1.77;;;20.90;93.20;;;;;;4964941;28;20057;-70
2022/07/14 17:04:14;;;;;;;4.30;1.92;;;20.80;93.20;;;;;;4950278;28;20038;-70
2022/07/14 17:06:41;;;;;;;5.53;2.40;;;20.70;93.50;;;;;;4959243;28;20051;-71
2022/07/14 17:09:08;;;;;;;5.65;2.10;;;20.70;93.50;;;;;;4944991;28;20046;-70
2022/07/14 17:11:33;;;;;;;4.32;1.80;;;20.60;93.80;;;;;;4949598;28;20097;-70
2022/07/14 17:14:01;;;;;;;6.53;1.90;;;20.70;93.50;;;;;;4948967;29;20040;-70
2022/07/14 17:16:28;;;;;;;5.85;2.10;;;20.70;94.40;;;;;;4921193;29;20079;-70
2022/07/14 17:18:54;;;;;;;5.05;1.90;;;20.70;94.80;;;;;;4912248;29;20435;-70
2022/07/14 17:21:20;;;;;;;4.60;2.03;;;20.60;95.80;;;;;;4929118;29;20484;-70
2022/07/14 17:23:47;;;;;;;4.35;1.77;;;20.60;96.40;;;;;;4921977;29;20553;-70
2022/07/14 17:26:12;;;;;;;4.40;2.10;;;20.40;96.60;;;;;;4916559;29;20048;-70
2022/07/14 17:28:38;;;;;;;4.65;2.00;;;20.30;97.00;;;;;;4912857;29;20058;-70
2022/07/14 17:31:04;;;;;;;5.40;2.13;;;20.40;97.30;;;;;;4912525;29;20075;-70
2022/07/14 17:33:30;;;;;;;5.25;2.10;;;21.30;96.70;;;;;;4940115;28;20035;-70
2022/07/14 17:36:00;;;;;;;4.28;2.03;;;22.40;95.60;;;;;;4934263;29;20515;-70
2022/07/14 17:38:27;;;;;;;4.38;2.20;;;23.40;94.40;;;;;;4922036;29;20075;-70
2022/07/14 17:40:53;;;;;;;5.50;2.10;;;23.60;93.40;;;;;;4934789;29;20073;-69
2022/07/14 17:43:20;;;;;;;6.97;2.28;;;23.40;92.80;;;;;;4900654;29;20052;-70
2022/07/14 17:45:45;;;;;;;5.75;2.20;;;23.00;93.20;;;;;;4945546;29;20035;-70
2022/07/14 17:48:11;;;;;;;5.80;1.90;;;22.80;94.00;;;;;;4927980;29;20039;-70
2022/07/14 17:50:37;;;;;;;2.92;1.90;;;22.80;94.20;;;;;;4929016;29;20058;-70
2022/07/14 17:53:03;;;;;;;6.47;2.10;;;23.00;94.10;;;;;;4915187;29;20043;-70
2022/07/14 17:55:29;;;;;;;4.93;2.00;;;23.20;93.40;;;;;;4915234;29;20104;-71
2022/07/14 17:57:55;;;;;;;5.70;2.20;;;22.80;93.20;;;;;;4943569;29;20527;-70
2022/07/14 18:00:23;;;;;;;6.18;2.25;;;22.60;93.90;;;;;;4929156;29;20045;-70
2022/07/14 18:02:50;;;;;;;4.80;2.00;;;22.30;94.20;;;;;;4923173;29;20047;-70
2022/07/14 18:05:16;;;;;;;4.82;2.17;;;21.70;94.60;;;;;;4922771;29;20043;-70
2022/07/14 18:07:43;;;;;;;4.40;2.25;;;21.20;95.60;;;;;;4923210;29;20118;-69
2022/07/14 18:10:09;;;;;;;6.50;2.72;;;20.90;96.20;;;;;;4940146;29;20043;-69
2022/07/14 18:12:36;;;;;;;6.25;2.22;;;20.50;97.40;;;;;;4930446;29;20039;-69
2022/07/14 18:15:02;;;;;;;5.47;2.70;;;20.10;98.30;;;;;;4934297;29;20098;-69
2022/07/14 18:17:28;;;;;;;7.18;2.28;;;19.80;98.80;;;;;;4950682;28;20121;-69
2022/07/14 18:19:54;;;;;;;6.68;2.65;;;19.60;99.30;;;;;;4943233;28;20041;-68
2022/07/14 18:22:21;;;;;;;6.85;2.72;;;19.30;99.20;;;;;;4935546;28;20129;-69
2022/07/14 18:24:47;;;;;;;9.85;2.63;;;19.20;99.90;;;;;;4956674;28;20047;-69
2022/07/14 18:27:13;;;;;;;6.07;2.45;;;19.10;99.70;;;;;;4944512;28;20050;-69
2022/07/14 18:29:41;;;;;;;8.35;2.38;;;19.00;99.80;;;;;;4940176;28;20047;-69
2022/07/14 18:32:11;;;;;;;7.10;2.65;;;18.90;99.80;;;;;;4955706;28;20055;-69
2022/07/14 18:34:38;;;;;;;9.13;2.50;;;18.90;99.90;;;;;;4956110;28;20047;-69
2022/07/14 18:37:09;;;;;;;7.93;2.78;;;18.90;99.90;;;;;;4933725;29;20043;-69
2022/07/14 18:39:36;;;;;;;7.88;3.03;;;18.90;99.90;;;;;;4938435;28;20055;-69
2022/07/14 18:42:02;;;;;;;8.32;2.63;;;18.90;99.90;;;;;;4940351;29;20121;-69
2022/07/14 18:46:13;;;;;;;8.43;2.67;;;18.90;99.90;;;;;;4933080;29;20584;-69
2022/07/14 18:47:14;;;;;;;7.28;2.75;;;18.80;99.90;;;;;;4932262;28;20410;-68
2022/07/14 18:49:40;;;;;;;8.43;2.47;;;18.80;99.90;;;;;;4953101;28;20066;-70
2022/07/14 18:52:06;;;;;;;8.88;2.90;;;18.70;99.90;;;;;;4953178;28;20542;-68
2022/07/14 18:54:33;;;;;;;7.63;3.00;;;18.70;99.90;;;;;;4939250;28;20077;-69
2022/07/14 18:56:59;;;;;;;8.68;2.70;;;18.70;99.90;;;;;;4957813;28;20039;-68
2022/07/14 18:59:29;;;;;;;7.07;2.70;;;18.70;99.90;;;;;;4935638;28;20594;-68
2022/07/14 19:01:55;;;;;;;9.95;2.78;;;18.70;99.90;;;;;;4959795;28;20170;-68
2022/07/14 19:04:21;;;;;;;6.43;2.65;;;18.60;99.90;;;;;;4936607;28;20043;-68
2022/07/14 19:06:47;;;;;;;10.02;2.50;;;18.60;99.90;;;;;;4944342;28;20050;-68
2022/07/14 19:09:13;;;;;;;5.05;2.60;;;18.60;99.90;;;;;;4962986;28;20050;-70
2022/07/14 19:11:39;;;;;;;9.07;2.55;;;18.60;99.90;;;;;;4962835;28;20042;-70
2022/07/14 19:14:04;;;;;;;6.13;2.47;;;18.50;99.90;;;;;;4966870;28;20034;-70
2022/07/14 19:16:30;;;;;;;8.32;2.60;;;18.60;99.90;;;;;;4953810;28;20038;-70
2022/07/14 19:18:55;;;;;;;9.05;2.58;;;18.50;99.90;;;;;;4936431;29;20070;-70
2022/07/14 19:21:26;;;;;;;8.30;2.53;;;18.50;99.90;;;;;;4959783;28;20034;-69
2022/07/14 19:23:52;;;;;;;5.50;2.35;;;18.50;99.90;;;;;;4959911;28;20051;-69
2022/07/14 19:26:18;;;;;;;6.72;2.20;;;18.50;99.90;;;;;;4953621;28;20050;-70
2022/07/14 19:28:43;;;;;;;9.00;2.25;;;18.50;99.90;;;;;;4944223;28;20053;-70
2022/07/14 19:31:09;;;;;;;9.35;2.17;;;18.50;99.80;;;;;;4961644;28;20090;-70
2022/07/14 19:33:35;;;;;;;7.32;2.33;;;18.50;99.70;;;;;;4965942;28;20039;-70
2022/07/14 19:36:01;;;;;;;6.15;2.47;;;18.40;99.60;;;;;;4960835;28;20037;-70
2022/07/14 19:38:27;;;;;;;7.78;2.95;;;18.30;99.60;;;;;;4966295;28;20061;-70
2022/07/14 19:40:53;;;;;;;9.77;2.15;;;18.20;99.60;;;;;;4963079;28;20042;-69
2022/07/14 19:43:19;;;;;;;4.95;2.08;;;18.10;99.70;;;;;;4963870;28;20054;-69
2022/07/14 19:45:45;;;;;;;9.65;2.35;;;18.00;99.70;;;;;;4960551;28;20565;-69
2022/07/14 19:48:11;;;;;;;11.13;2.38;;;17.90;99.70;;;;;;4962839;28;20041;-70
2022/07/14 19:50:38;;;;;;;3.65;2.13;;;17.80;99.80;;;;;;4947415;28;20054;-69
2022/07/14 19:53:04;;;;;;;7.25;2.40;;;17.60;99.90;;;;;;4943119;28;20057;-69
2022/07/14 19:55:30;;;;;;;5.10;1.92;;;17.50;99.90;;;;;;4948044;28;20411;-69
2022/07/14 19:57:55;;;;;;;6.10;2.42;;;17.40;99.90;;;;;;4947732;28;20546;-70
2022/07/14 20:00:24;;;;;;;8.98;2.90;;;17.30;99.90;;;;;;4935876;28;20043;-70
2022/07/14 20:02:51;;;;;;;6.18;2.42;;;17.20;99.90;;;;;;4959839;28;20175;-69
2022/07/14 20:05:17;;;;;;;7.82;2.25;;;17.10;99.90;;;;;;4955544;28;20491;-69
2022/07/14 20:07:43;;;;;;;5.68;2.03;;;17.00;99.90;;;;;;4951161;28;20050;-69
2022/07/14 20:10:09;;;;;;;9.00;2.58;;;16.90;99.90;;;;;;4938727;28;20046;-69
2022/07/14 20:12:35;;;;;;;7.65;2.63;;;16.70;99.90;;;;;;4951190;28;20032;-69
2022/07/14 20:15:06;;;;;;;8.13;2.33;;;16.70;99.90;;;;;;4935116;29;20083;-68
2022/07/14 20:17:35;;;;;;;6.63;2.22;;;16.60;99.90;;;;;;4952853;29;20043;-71
2022/07/14 20:20:01;;;;;;;6.05;2.17;;;16.60;99.90;;;;;;4966930;28;20474;-68
2022/07/14 20:22:28;;;;;;;8.57;2.67;;;16.50;99.90;;;;;;4937729;28;20046;-68
2022/07/14 20:24:54;;;;;;;5.63;2.17;;;16.40;99.90;;;;;;4972068;28;20070;-68
2022/07/14 20:32:59;;;;;;;6.90;2.15;;;16.10;99.90;;;;;;4971619;28;20523;-68
2022/07/14 20:35:25;;;;;;;8.52;2.72;;;16.10;99.90;;;;;;4950055;28;20038;-68
2022/07/14 20:37:51;;;;;;;6.85;2.22;;;16.00;99.90;;;;;;4954040;28;20126;-69
2022/07/14 20:40:17;;;;;;;7.13;2.40;;;16.00;99.90;;;;;;4955126;28;20039;-68
2022/07/14 20:42:43;;;;;;;7.43;2.55;;;15.90;99.90;;;;;;4972364;28;20038;-68
2022/07/14 20:45:10;;;;;;;5.22;2.15;;;15.90;99.90;;;;;;4967320;28;20040;-68
2022/07/14 20:47:36;;;;;;;8.27;2.30;;;15.90;99.90;;;;;;4947473;28;20414;-68
2022/07/14 20:50:02;;;;;;;7.07;2.20;;;15.90;99.90;;;;;;4972254;28;20039;-68
2022/07/14 20:52:27;;;;;;;13.77;2.40;;;15.90;99.90;;;;;;4959883;28;20039;-68
2022/07/14 20:54:53;;;;;;;7.22;2.47;;;15.80;99.90;;;;;;4967539;28;20122;-69
2022/07/14 20:57:19;;;;;;;6.88;2.53;;;15.70;99.90;;;;;;4955021;28;20050;-69
2022/07/14 20:59:45;;;;;;;10.18;2.40;;;15.70;99.90;;;;;;4967400;28;20049;-70